Terminal Aerodrome Forecast
Issued by NWS Caribou, ME

Home | Current Version | Previous Version | Text Only | Print | Product List | Glossary On
Versions: 1 2 3 4 5 6 7 8 9 10 11 12 13 14 15 16
000
FTUS41 KCAR 260548
TAFCAR
TAF
KCAR 260548Z 2606/2706 25010G20KT P6SM BKN045
     FM261300 29010G18KT P6SM BKN030
     FM261900 01005KT P6SM SCT030 OVC100
     FM270100 36006KT 1SM -SN VV008=

USA.gov is the U.S. government's official web portal to all federal, state and local government web resources and services.